sensor_id;sensor_type;location;lat;lon;timestamp;P1;durP1;ratioP1;P2;durP2;ratioP2
49183;SDS011;35021;49.214;12.270;2023-03-11T00:00:28;0.38;;;0.38;;
49183;SDS011;35021;49.214;12.270;2023-03-11T00:02:58;0.45;;;0.40;;
49183;SDS011;35021;49.214;12.270;2023-03-11T00:05:27;0.43;;;0.30;;
49183;SDS011;35021;49.214;12.270;2023-03-11T00:07:55;1.13;;;0.45;;
49183;SDS011;35021;49.214;12.270;2023-03-11T00:10:41;0.40;;;0.40;;
49183;SDS011;35021;49.214;12.270;2023-03-11T00:13:11;0.50;;;0.40;;
49183;SDS011;35021;49.214;12.270;2023-03-11T00:15:39;0.55;;;0.40;;
49183;SDS011;35021;49.214;12.270;2023-03-11T00:18:09;0.30;;;0.30;;
49183;SDS011;35021;49.214;12.270;2023-03-11T00:20:37;0.35;;;0.35;;
49183;SDS011;35021;49.214;12.270;2023-03-11T00:23:07;1.00;;;0.60;;
49183;SDS011;35021;49.214;12.270;2023-03-11T00:25:36;0.52;;;0.50;;
49183;SDS011;35021;49.214;12.270;2023-03-11T00:28:04;0.38;;;0.30;;
49183;SDS011;35021;49.214;12.270;2023-03-11T00:30:32;1.10;;;0.47;;
49183;SDS011;35021;49.214;12.270;2023-03-11T00:32:59;0.30;;;0.30;;
49183;SDS011;35021;49.214;12.270;2023-03-11T00:35:28;0.40;;;0.30;;
49183;SDS011;35021;49.214;12.270;2023-03-11T00:37:57;0.40;;;0.40;;
49183;SDS011;35021;49.214;12.270;2023-03-11T00:40:27;1.05;;;0.50;;
49183;SDS011;35021;49.214;12.270;2023-03-11T00:42:56;1.65;;;0.40;;
49183;SDS011;35021;49.214;12.270;2023-03-11T00:45:23;1.10;;;0.60;;
49183;SDS011;35021;49.214;12.270;2023-03-11T00:47:51;0.20;;;0.20;;
49183;SDS011;35021;49.214;12.270;2023-03-11T00:50:19;0.50;;;0.40;;
49183;SDS011;35021;49.214;12.270;2023-03-11T00:52:49;0.30;;;0.30;;
49183;SDS011;35021;49.214;12.270;2023-03-11T00:55:18;0.50;;;0.50;;
49183;SDS011;35021;49.214;12.270;2023-03-11T00:57:49;0.40;;;0.40;;
49183;SDS011;35021;49.214;12.270;2023-03-11T01:00:17;1.48;;;0.43;;
49183;SDS011;35021;49.214;12.270;2023-03-11T01:02:46;0.70;;;0.30;;
49183;SDS011;35021;49.214;12.270;2023-03-11T01:05:12;0.65;;;0.60;;
49183;SDS011;35021;49.214;12.270;2023-03-11T01:07:40;0.30;;;0.30;;
49183;SDS011;35021;49.214;12.270;2023-03-11T01:10:07;0.65;;;0.40;;
49183;SDS011;35021;49.214;12.270;2023-03-11T01:12:35;0.40;;;0.40;;
49183;SDS011;35021;49.214;12.270;2023-03-11T01:15:02;0.40;;;0.40;;
49183;SDS011;35021;49.214;12.270;2023-03-11T01:17:30;0.65;;;0.35;;
49183;SDS011;35021;49.214;12.270;2023-03-11T01:19:56;0.30;;;0.30;;
49183;SDS011;35021;49.214;12.270;2023-03-11T01:22:23;0.45;;;0.32;;
49183;SDS011;35021;49.214;12.270;2023-03-11T01:24:50;0.63;;;0.47;;
49183;SDS011;35021;49.214;12.270;2023-03-11T01:27:17;0.30;;;0.30;;
49183;SDS011;35021;49.214;12.270;2023-03-11T01:29:43;0.20;;;0.20;;
49183;SDS011;35021;49.214;12.270;2023-03-11T01:32:10;0.45;;;0.35;;
49183;SDS011;35021;49.214;12.270;2023-03-11T01:34:37;0.40;;;0.40;;
49183;SDS011;35021;49.214;12.270;2023-03-11T01:37:04;0.30;;;0.30;;
49183;SDS011;35021;49.214;12.270;2023-03-11T01:39:31;0.30;;;0.30;;
49183;SDS011;35021;49.214;12.270;2023-03-11T01:41:58;0.25;;;0.25;;
49183;SDS011;35021;49.214;12.270;2023-03-11T01:44:24;0.30;;;0.30;;
49183;SDS011;35021;49.214;12.270;2023-03-11T01:49:20;0.30;;;0.30;;
49183;SDS011;35021;49.214;12.270;2023-03-11T01:51:48;0.50;;;0.47;;
49183;SDS011;35021;49.214;12.270;2023-03-11T01:56:50;0.68;;;0.30;;
49183;SDS011;35021;49.214;12.270;2023-03-11T01:59:19;0.40;;;0.40;;
49183;SDS011;35021;49.214;12.270;2023-03-11T02:01:51;0.40;;;0.40;;
49183;SDS011;35021;49.214;12.270;2023-03-11T02:04:36;0.40;;;0.40;;
49183;SDS011;35021;49.214;12.270;2023-03-11T02:07:04;0.35;;;0.30;;
49183;SDS011;35021;49.214;12.270;2023-03-11T02:09:33;0.38;;;0.38;;
49183;SDS011;35021;49.214;12.270;2023-03-11T02:12:01;0.20;;;0.20;;
49183;SDS011;35021;49.214;12.270;2023-03-11T02:14:29;0.30;;;0.30;;
49183;SDS011;35021;49.214;12.270;2023-03-11T02:16:58;0.30;;;0.30;;
49183;SDS011;35021;49.214;12.270;2023-03-11T02:22:20;0.30;;;0.30;;
49183;SDS011;35021;49.214;12.270;2023-03-11T02:27:17;0.40;;;0.35;;
49183;SDS011;35021;49.214;12.270;2023-03-11T02:29:45;0.17;;;0.17;;
49183;SDS011;35021;49.214;12.270;2023-03-11T02:32:15;0.28;;;0.28;;
49183;SDS011;35021;49.214;12.270;2023-03-11T02:34:44;0.50;;;0.30;;
49183;SDS011;35021;49.214;12.270;2023-03-11T02:37:12;0.40;;;0.35;;
49183;SDS011;35021;49.214;12.270;2023-03-11T02:39:41;0.60;;;0.30;;
49183;SDS011;35021;49.214;12.270;2023-03-11T02:42:17;0.30;;;0.30;;
49183;SDS011;35021;49.214;12.270;2023-03-11T02:44:52;0.20;;;0.20;;
49183;SDS011;35021;49.214;12.270;2023-03-11T02:47:24;0.30;;;0.30;;
49183;SDS011;35021;49.214;12.270;2023-03-11T02:49:51;0.30;;;0.30;;
49183;SDS011;35021;49.214;12.270;2023-03-11T02:52:22;0.95;;;0.20;;
49183;SDS011;35021;49.214;12.270;2023-03-11T02:54:53;0.30;;;0.25;;
49183;SDS011;35021;49.214;12.270;2023-03-11T02:57:20;0.22;;;0.13;;
49183;SDS011;35021;49.214;12.270;2023-03-11T02:59:48;0.22;;;0.22;;
49183;SDS011;35021;49.214;12.270;2023-03-11T03:02:15;0.30;;;0.30;;
49183;SDS011;35021;49.214;12.270;2023-03-11T03:04:41;0.35;;;0.35;;
49183;SDS011;35021;49.214;12.270;2023-03-11T03:07:08;0.10;;;0.10;;
49183;SDS011;35021;49.214;12.270;2023-03-11T03:09:35;0.30;;;0.20;;
49183;SDS011;35021;49.214;12.270;2023-03-11T03:12:03;0.20;;;0.20;;
49183;SDS011;35021;49.214;12.270;2023-03-11T03:14:30;0.20;;;0.20;;
49183;SDS011;35021;49.214;12.270;2023-03-11T03:16:57;0.10;;;0.10;;
49183;SDS011;35021;49.214;12.270;2023-03-11T03:19:24;0.20;;;0.20;;
49183;SDS011;35021;49.214;12.270;2023-03-11T03:21:51;0.20;;;0.20;;
49183;SDS011;35021;49.214;12.270;2023-03-11T03:24:18;0.10;;;0.10;;
49183;SDS011;35021;49.214;12.270;2023-03-11T03:26:45;0.10;;;0.10;;
49183;SDS011;35021;49.214;12.270;2023-03-11T03:29:12;0.20;;;0.20;;
49183;SDS011;35021;49.214;12.270;2023-03-11T03:31:38;0.20;;;0.20;;
49183;SDS011;35021;49.214;12.270;2023-03-11T03:34:05;0.32;;;0.20;;
49183;SDS011;35021;49.214;12.270;2023-03-11T03:36:32;0.40;;;0.30;;
49183;SDS011;35021;49.214;12.270;2023-03-11T03:38:59;0.45;;;0.20;;
49183;SDS011;35021;49.214;12.270;2023-03-11T03:41:26;0.10;;;0.10;;
49183;SDS011;35021;49.214;12.270;2023-03-11T03:43:53;0.10;;;0.10;;
49183;SDS011;35021;49.214;12.270;2023-03-11T03:46:21;0.15;;;0.10;;
49183;SDS011;35021;49.214;12.270;2023-03-11T03:48:48;0.10;;;0.10;;
49183;SDS011;35021;49.214;12.270;2023-03-11T03:51:15;0.15;;;0.13;;
49183;SDS011;35021;49.214;12.270;2023-03-11T03:53:43;0.30;;;0.20;;
49183;SDS011;35021;49.214;12.270;2023-03-11T03:56:13;1.10;;;0.15;;
49183;SDS011;35021;49.214;12.270;2023-03-11T03:58:41;0.20;;;0.20;;
49183;SDS011;35021;49.214;12.270;2023-03-11T04:01:08;0.20;;;0.20;;
49183;SDS011;35021;49.214;12.270;2023-03-11T04:03:36;1.45;;;0.20;;
49183;SDS011;35021;49.214;12.270;2023-03-11T04:06:05;0.30;;;0.30;;
49183;SDS011;35021;49.214;12.270;2023-03-11T04:08:32;0.20;;;0.17;;
49183;SDS011;35021;49.214;12.270;2023-03-11T04:10:59;0.38;;;0.22;;
49183;SDS011;35021;49.214;12.270;2023-03-11T04:13:26;0.40;;;0.30;;
49183;SDS011;35021;49.214;12.270;2023-03-11T04:15:53;0.38;;;0.20;;
49183;SDS011;35021;49.214;12.270;2023-03-11T04:18:20;0.30;;;0.25;;
49183;SDS011;35021;49.214;12.270;2023-03-11T04:20:48;0.75;;;0.20;;
49183;SDS011;35021;49.214;12.270;2023-03-11T04:23:15;0.20;;;0.20;;
49183;SDS011;35021;49.214;12.270;2023-03-11T04:25:42;0.85;;;0.30;;
49183;SDS011;35021;49.214;12.270;2023-03-11T04:28:08;0.30;;;0.20;;
49183;SDS011;35021;49.214;12.270;2023-03-11T04:30:36;0.20;;;0.15;;
49183;SDS011;35021;49.214;12.270;2023-03-11T04:33:04;0.20;;;0.20;;
49183;SDS011;35021;49.214;12.270;2023-03-11T04:35:31;0.38;;;0.30;;
49183;SDS011;35021;49.214;12.270;2023-03-11T04:37:58;0.30;;;0.30;;
49183;SDS011;35021;49.214;12.270;2023-03-11T04:40:25;0.25;;;0.25;;
49183;SDS011;35021;49.214;12.270;2023-03-11T04:42:53;0.77;;;0.20;;
49183;SDS011;35021;49.214;12.270;2023-03-11T04:45:20;0.40;;;0.30;;
49183;SDS011;35021;49.214;12.270;2023-03-11T04:47:47;3.20;;;0.40;;
49183;SDS011;35021;49.214;12.270;2023-03-11T04:50:15;0.40;;;0.30;;
49183;SDS011;35021;49.214;12.270;2023-03-11T04:52:43;0.35;;;0.30;;
49183;SDS011;35021;49.214;12.270;2023-03-11T04:55:11;0.30;;;0.30;;
49183;SDS011;35021;49.214;12.270;2023-03-11T04:57:39;0.20;;;0.20;;
49183;SDS011;35021;49.214;12.270;2023-03-11T05:00:08;0.38;;;0.28;;
49183;SDS011;35021;49.214;12.270;2023-03-11T05:02:37;0.20;;;0.20;;
49183;SDS011;35021;49.214;12.270;2023-03-11T05:05:05;0.50;;;0.30;;
49183;SDS011;35021;49.214;12.270;2023-03-11T05:07:34;0.38;;;0.20;;
49183;SDS011;35021;49.214;12.270;2023-03-11T05:10:03;0.20;;;0.20;;
49183;SDS011;35021;49.214;12.270;2023-03-11T05:12:31;0.35;;;0.20;;
49183;SDS011;35021;49.214;12.270;2023-03-11T05:14:58;0.28;;;0.28;;
49183;SDS011;35021;49.214;12.270;2023-03-11T05:17:25;0.25;;;0.25;;
49183;SDS011;35021;49.214;12.270;2023-03-11T05:19:51;0.20;;;0.20;;
49183;SDS011;35021;49.214;12.270;2023-03-11T05:22:22;0.52;;;0.30;;
49183;SDS011;35021;49.214;12.270;2023-03-11T05:24:49;0.47;;;0.28;;
49183;SDS011;35021;49.214;12.270;2023-03-11T05:27:16;0.30;;;0.28;;
49183;SDS011;35021;49.214;12.270;2023-03-11T05:29:43;0.75;;;0.43;;
49183;SDS011;35021;49.214;12.270;2023-03-11T05:32:10;0.30;;;0.30;;
49183;SDS011;35021;49.214;12.270;2023-03-11T05:34:38;0.47;;;0.30;;
49183;SDS011;35021;49.214;12.270;2023-03-11T05:37:05;0.40;;;0.30;;
49183;SDS011;35021;49.214;12.270;2023-03-11T05:39:33;0.32;;;0.30;;
49183;SDS011;35021;49.214;12.270;2023-03-11T05:42:00;0.32;;;0.32;;
49183;SDS011;35021;49.214;12.270;2023-03-11T05:44:27;0.52;;;0.30;;
49183;SDS011;35021;49.214;12.270;2023-03-11T05:46:54;0.60;;;0.50;;
49183;SDS011;35021;49.214;12.270;2023-03-11T05:49:21;0.30;;;0.30;;
49183;SDS011;35021;49.214;12.270;2023-03-11T05:51:48;0.60;;;0.20;;
49183;SDS011;35021;49.214;12.270;2023-03-11T05:54:16;0.60;;;0.40;;
49183;SDS011;35021;49.214;12.270;2023-03-11T05:56:43;0.30;;;0.25;;
49183;SDS011;35021;49.214;12.270;2023-03-11T05:59:11;0.30;;;0.28;;
49183;SDS011;35021;49.214;12.270;2023-03-11T06:01:42;0.20;;;0.20;;
49183;SDS011;35021;49.214;12.270;2023-03-11T06:04:09;0.80;;;0.40;;
49183;SDS011;35021;49.214;12.270;2023-03-11T06:06:37;0.70;;;0.35;;
49183;SDS011;35021;49.214;12.270;2023-03-11T06:09:10;1.00;;;0.50;;
49183;SDS011;35021;49.214;12.270;2023-03-11T06:11:38;0.40;;;0.30;;
49183;SDS011;35021;49.214;12.270;2023-03-11T06:14:05;0.50;;;0.47;;
49183;SDS011;35021;49.214;12.270;2023-03-11T06:16:32;0.93;;;0.40;;
49183;SDS011;35021;49.214;12.270;2023-03-11T06:18:59;0.75;;;0.30;;
49183;SDS011;35021;49.214;12.270;2023-03-11T06:21:27;0.60;;;0.30;;
49183;SDS011;35021;49.214;12.270;2023-03-11T06:23:53;0.77;;;0.40;;
49183;SDS011;35021;49.214;12.270;2023-03-11T06:26:21;0.30;;;0.30;;
49183;SDS011;35021;49.214;12.270;2023-03-11T06:28:50;0.75;;;0.30;;
49183;SDS011;35021;49.214;12.270;2023-03-11T06:31:21;0.77;;;0.50;;
49183;SDS011;35021;49.214;12.270;2023-03-11T06:33:51;0.77;;;0.55;;
49183;SDS011;35021;49.214;12.270;2023-03-11T06:36:19;0.47;;;0.30;;
49183;SDS011;35021;49.214;12.270;2023-03-11T06:38:45;0.77;;;0.40;;
49183;SDS011;35021;49.214;12.270;2023-03-11T06:41:14;1.38;;;0.65;;
49183;SDS011;35021;49.214;12.270;2023-03-11T06:43:42;1.17;;;0.40;;
49183;SDS011;35021;49.214;12.270;2023-03-11T06:46:13;1.00;;;0.30;;
49183;SDS011;35021;49.214;12.270;2023-03-11T06:48:42;0.30;;;0.20;;
49183;SDS011;35021;49.214;12.270;2023-03-11T06:51:11;0.68;;;0.52;;
49183;SDS011;35021;49.214;12.270;2023-03-11T06:53:38;0.32;;;0.30;;
49183;SDS011;35021;49.214;12.270;2023-03-11T06:56:09;0.82;;;0.38;;
49183;SDS011;35021;49.214;12.270;2023-03-11T06:58:38;0.43;;;0.30;;
49183;SDS011;35021;49.214;12.270;2023-03-11T07:01:08;0.93;;;0.50;;
49183;SDS011;35021;49.214;12.270;2023-03-11T07:03:37;0.40;;;0.30;;
49183;SDS011;35021;49.214;12.270;2023-03-11T07:06:05;2.28;;;0.30;;
49183;SDS011;35021;49.214;12.270;2023-03-11T07:08:35;0.95;;;0.50;;
49183;SDS011;35021;49.214;12.270;2023-03-11T07:11:09;0.80;;;0.43;;
49183;SDS011;35021;49.214;12.270;2023-03-11T07:13:40;0.38;;;0.28;;
49183;SDS011;35021;49.214;12.270;2023-03-11T07:16:17;0.85;;;0.38;;
49183;SDS011;35021;49.214;12.270;2023-03-11T07:18:46;0.75;;;0.43;;
49183;SDS011;35021;49.214;12.270;2023-03-11T07:21:15;1.52;;;0.70;;
49183;SDS011;35021;49.214;12.270;2023-03-11T07:23:44;0.63;;;0.50;;
49183;SDS011;35021;49.214;12.270;2023-03-11T07:26:11;2.05;;;0.60;;
49183;SDS011;35021;49.214;12.270;2023-03-11T07:28:39;0.70;;;0.38;;
49183;SDS011;35021;49.214;12.270;2023-03-11T07:31:12;0.90;;;0.35;;
49183;SDS011;35021;49.214;12.270;2023-03-11T07:33:41;0.50;;;0.40;;
49183;SDS011;35021;49.214;12.270;2023-03-11T07:36:19;0.60;;;0.40;;
49183;SDS011;35021;49.214;12.270;2023-03-11T07:38:48;0.73;;;0.40;;
49183;SDS011;35021;49.214;12.270;2023-03-11T07:41:19;0.60;;;0.30;;
49183;SDS011;35021;49.214;12.270;2023-03-11T07:43:47;0.52;;;0.38;;
49183;SDS011;35021;49.214;12.270;2023-03-11T07:46:19;1.15;;;0.43;;
49183;SDS011;35021;49.214;12.270;2023-03-11T07:48:48;1.88;;;0.70;;
49183;SDS011;35021;49.214;12.270;2023-03-11T07:51:17;0.77;;;0.52;;
49183;SDS011;35021;49.214;12.270;2023-03-11T07:53:52;0.77;;;0.40;;
49183;SDS011;35021;49.214;12.270;2023-03-11T07:56:21;0.88;;;0.40;;
49183;SDS011;35021;49.214;12.270;2023-03-11T07:58:49;0.40;;;0.40;;
49183;SDS011;35021;49.214;12.270;2023-03-11T08:01:18;1.40;;;0.40;;
49183;SDS011;35021;49.214;12.270;2023-03-11T08:03:47;1.88;;;0.82;;
49183;SDS011;35021;49.214;12.270;2023-03-11T08:06:21;1.00;;;0.70;;
49183;SDS011;35021;49.214;12.270;2023-03-11T08:08:50;1.05;;;0.60;;
49183;SDS011;35021;49.214;12.270;2023-03-11T08:11:18;1.80;;;1.00;;
49183;SDS011;35021;49.214;12.270;2023-03-11T08:13:46;3.72;;;2.05;;
49183;SDS011;35021;49.214;12.270;2023-03-11T08:16:14;4.53;;;1.70;;
49183;SDS011;35021;49.214;12.270;2023-03-11T08:18:44;3.78;;;1.10;;
49183;SDS011;35021;49.214;12.270;2023-03-11T08:21:13;1.20;;;0.63;;
49183;SDS011;35021;49.214;12.270;2023-03-11T08:23:42;1.40;;;0.70;;
49183;SDS011;35021;49.214;12.270;2023-03-11T08:26:13;0.93;;;0.65;;
49183;SDS011;35021;49.214;12.270;2023-03-11T08:28:42;1.58;;;0.70;;
49183;SDS011;35021;49.214;12.270;2023-03-11T08:31:10;0.93;;;0.52;;
49183;SDS011;35021;49.214;12.270;2023-03-11T08:33:42;1.15;;;0.60;;
49183;SDS011;35021;49.214;12.270;2023-03-11T08:36:11;1.15;;;0.50;;
49183;SDS011;35021;49.214;12.270;2023-03-11T08:38:38;0.75;;;0.47;;
49183;SDS011;35021;49.214;12.270;2023-03-11T08:41:05;0.50;;;0.32;;
49183;SDS011;35021;49.214;12.270;2023-03-11T08:43:32;0.65;;;0.40;;
49183;SDS011;35021;49.214;12.270;2023-03-11T08:45:59;0.82;;;0.35;;
49183;SDS011;35021;49.214;12.270;2023-03-11T08:48:27;1.48;;;0.52;;
49183;SDS011;35021;49.214;12.270;2023-03-11T08:50:55;0.63;;;0.47;;
49183;SDS011;35021;49.214;12.270;2023-03-11T08:53:22;1.02;;;0.40;;
49183;SDS011;35021;49.214;12.270;2023-03-11T08:55:49;0.40;;;0.40;;
49183;SDS011;35021;49.214;12.270;2023-03-11T08:58:17;0.60;;;0.40;;
49183;SDS011;35021;49.214;12.270;2023-03-11T09:00:44;0.63;;;0.50;;
49183;SDS011;35021;49.214;12.270;2023-03-11T09:03:12;0.63;;;0.30;;
49183;SDS011;35021;49.214;12.270;2023-03-11T09:05:39;0.75;;;0.50;;
49183;SDS011;35021;49.214;12.270;2023-03-11T09:08:06;2.55;;;0.68;;
49183;SDS011;35021;49.214;12.270;2023-03-11T09:10:33;1.25;;;0.57;;
49183;SDS011;35021;49.214;12.270;2023-03-11T09:13:00;0.82;;;0.52;;
49183;SDS011;35021;49.214;12.270;2023-03-11T09:15:27;0.68;;;0.50;;
49183;SDS011;35021;49.214;12.270;2023-03-11T09:17:54;0.90;;;0.50;;
49183;SDS011;35021;49.214;12.270;2023-03-11T09:20:21;0.73;;;0.40;;
49183;SDS011;35021;49.214;12.270;2023-03-11T09:22:48;0.57;;;0.40;;
49183;SDS011;35021;49.214;12.270;2023-03-11T09:25:15;2.03;;;0.90;;
49183;SDS011;35021;49.214;12.270;2023-03-11T09:27:42;1.13;;;0.50;;
49183;SDS011;35021;49.214;12.270;2023-03-11T09:30:09;0.68;;;0.50;;
49183;SDS011;35021;49.214;12.270;2023-03-11T09:32:36;0.60;;;0.40;;
49183;SDS011;35021;49.214;12.270;2023-03-11T09:35:03;0.65;;;0.45;;
49183;SDS011;35021;49.214;12.270;2023-03-11T09:37:30;0.55;;;0.50;;
49183;SDS011;35021;49.214;12.270;2023-03-11T09:39:57;0.95;;;0.43;;
49183;SDS011;35021;49.214;12.270;2023-03-11T09:47:50;0.75;;;0.40;;
49183;SDS011;35021;49.214;12.270;2023-03-11T09:50:32;0.80;;;0.38;;
49183;SDS011;35021;49.214;12.270;2023-03-11T09:55:52;0.70;;;0.40;;
49183;SDS011;35021;49.214;12.270;2023-03-11T09:58:38;1.00;;;0.40;;
49183;SDS011;35021;49.214;12.270;2023-03-11T10:01:23;0.57;;;0.30;;
49183;SDS011;35021;49.214;12.270;2023-03-11T10:03:56;0.68;;;0.40;;
49183;SDS011;35021;49.214;12.270;2023-03-11T10:06:49;0.80;;;0.50;;
49183;SDS011;35021;49.214;12.270;2023-03-11T10:19:58;0.80;;;0.52;;
49183;SDS011;35021;49.214;12.270;2023-03-11T10:22:35;0.88;;;0.47;;
49183;SDS011;35021;49.214;12.270;2023-03-11T10:26:12;0.43;;;0.40;;
49183;SDS011;35021;49.214;12.270;2023-03-11T10:28:41;1.35;;;0.52;;
49183;SDS011;35021;49.214;12.270;2023-03-11T10:31:26;1.23;;;0.50;;
49183;SDS011;35021;49.214;12.270;2023-03-11T10:34:01;0.82;;;0.40;;
49183;SDS011;35021;49.214;12.270;2023-03-11T10:36:34;0.47;;;0.38;;
49183;SDS011;35021;49.214;12.270;2023-03-11T10:39:04;0.52;;;0.40;;
49183;SDS011;35021;49.214;12.270;2023-03-11T10:41:41;0.75;;;0.40;;
49183;SDS011;35021;49.214;12.270;2023-03-11T10:44:19;1.65;;;0.70;;
49183;SDS011;35021;49.214;12.270;2023-03-11T10:46:59;0.50;;;0.30;;
49183;SDS011;35021;49.214;12.270;2023-03-11T10:49:27;1.02;;;0.68;;
49183;SDS011;35021;49.214;12.270;2023-03-11T10:51:54;0.75;;;0.45;;
49183;SDS011;35021;49.214;12.270;2023-03-11T10:54:36;0.75;;;0.35;;
49183;SDS011;35021;49.214;12.270;2023-03-11T10:57:22;1.13;;;0.43;;
49183;SDS011;35021;49.214;12.270;2023-03-11T10:59:55;0.22;;;0.22;;
49183;SDS011;35021;49.214;12.270;2023-03-11T11:02:27;0.40;;;0.38;;
49183;SDS011;35021;49.214;12.270;2023-03-11T11:07:48;0.30;;;0.30;;
49183;SDS011;35021;49.214;12.270;2023-03-11T11:15:34;1.25;;;0.50;;
49183;SDS011;35021;49.214;12.270;2023-03-11T11:18:04;0.90;;;0.50;;
49183;SDS011;35021;49.214;12.270;2023-03-11T11:20:51;0.60;;;0.43;;
49183;SDS011;35021;49.214;12.270;2023-03-11T11:23:25;0.75;;;0.35;;
49183;SDS011;35021;49.214;12.270;2023-03-11T11:26:03;0.63;;;0.40;;
49183;SDS011;35021;49.214;12.270;2023-03-11T11:28:32;0.98;;;0.60;;
49183;SDS011;35021;49.214;12.270;2023-03-11T11:31:00;1.58;;;0.50;;
49183;SDS011;35021;49.214;12.270;2023-03-11T11:33:33;0.98;;;0.30;;
49183;SDS011;35021;49.214;12.270;2023-03-11T11:36:10;0.40;;;0.40;;
49183;SDS011;35021;49.214;12.270;2023-03-11T11:38:39;0.30;;;0.30;;
49183;SDS011;35021;49.214;12.270;2023-03-11T11:41:14;0.60;;;0.38;;
49183;SDS011;35021;49.214;12.270;2023-03-11T11:43:45;0.60;;;0.47;;
49183;SDS011;35021;49.214;12.270;2023-03-11T11:46:38;0.95;;;0.38;;
49183;SDS011;35021;49.214;12.270;2023-03-11T11:54:53;0.88;;;0.40;;
49183;SDS011;35021;49.214;12.270;2023-03-11T11:57:42;0.52;;;0.30;;
49183;SDS011;35021;49.214;12.270;2023-03-11T12:00:18;0.65;;;0.47;;
49183;SDS011;35021;49.214;12.270;2023-03-11T12:02:59;0.45;;;0.28;;
49183;SDS011;35021;49.214;12.270;2023-03-11T12:05:55;0.73;;;0.50;;
49183;SDS011;35021;49.214;12.270;2023-03-11T12:08:26;0.60;;;0.40;;
49183;SDS011;35021;49.214;12.270;2023-03-11T12:11:06;2.03;;;0.50;;
49183;SDS011;35021;49.214;12.270;2023-03-11T12:13:57;1.98;;;0.98;;
49183;SDS011;35021;49.214;12.270;2023-03-11T12:16:34;1.70;;;0.73;;
49183;SDS011;35021;49.214;12.270;2023-03-11T12:19:09;1.05;;;0.60;;
49183;SDS011;35021;49.214;12.270;2023-03-11T12:27:24;0.77;;;0.40;;
49183;SDS011;35021;49.214;12.270;2023-03-11T12:30:30;0.98;;;0.60;;
49183;SDS011;35021;49.214;12.270;2023-03-11T12:37:57;0.55;;;0.38;;
49183;SDS011;35021;49.214;12.270;2023-03-11T12:46:05;0.65;;;0.50;;
49183;SDS011;35021;49.214;12.270;2023-03-11T12:53:53;1.30;;;0.60;;
49183;SDS011;35021;49.214;12.270;2023-03-11T12:56:29;1.63;;;0.60;;
49183;SDS011;35021;49.214;12.270;2023-03-11T13:15:24;1.60;;;0.80;;
49183;SDS011;35021;49.214;12.270;2023-03-11T13:18:03;1.55;;;0.70;;
49183;SDS011;35021;49.214;12.270;2023-03-11T13:20:45;1.13;;;0.60;;
49183;SDS011;35021;49.214;12.270;2023-03-11T13:26:09;1.55;;;0.70;;
49183;SDS011;35021;49.214;12.270;2023-03-11T13:28:53;1.13;;;0.70;;
49183;SDS011;35021;49.214;12.270;2023-03-11T13:34:14;1.70;;;0.57;;
49183;SDS011;35021;49.214;12.270;2023-03-11T13:45:00;1.30;;;0.80;;
49183;SDS011;35021;49.214;12.270;2023-03-11T13:47:30;1.38;;;0.60;;
49183;SDS011;35021;49.214;12.270;2023-03-11T13:49:59;1.63;;;0.93;;
49183;SDS011;35021;49.214;12.270;2023-03-11T13:52:35;0.73;;;0.60;;
49183;SDS011;35021;49.214;12.270;2023-03-11T13:55:12;1.65;;;1.00;;
49183;SDS011;35021;49.214;12.270;2023-03-11T13:57:53;1.05;;;0.57;;
49183;SDS011;35021;49.214;12.270;2023-03-11T14:00:23;1.55;;;0.80;;
49183;SDS011;35021;49.214;12.270;2023-03-11T14:02:55;1.27;;;0.60;;
49183;SDS011;35021;49.214;12.270;2023-03-11T14:05:31;1.42;;;0.70;;
49183;SDS011;35021;49.214;12.270;2023-03-11T14:11:14;0.82;;;0.60;;
49183;SDS011;35021;49.214;12.270;2023-03-11T14:13:45;1.13;;;0.60;;
49183;SDS011;35021;49.214;12.270;2023-03-11T14:16:16;0.65;;;0.43;;
49183;SDS011;35021;49.214;12.270;2023-03-11T14:21:43;1.33;;;0.60;;
49183;SDS011;35021;49.214;12.270;2023-03-11T14:24:29;1.25;;;0.57;;
49183;SDS011;35021;49.214;12.270;2023-03-11T14:26:57;0.80;;;0.60;;
49183;SDS011;35021;49.214;12.270;2023-03-11T14:29:29;0.90;;;0.50;;
49183;SDS011;35021;49.214;12.270;2023-03-11T14:34:50;1.25;;;0.60;;
49183;SDS011;35021;49.214;12.270;2023-03-11T14:37:32;0.80;;;0.70;;
49183;SDS011;35021;49.214;12.270;2023-03-11T14:40:17;1.23;;;0.63;;
49183;SDS011;35021;49.214;12.270;2023-03-11T14:43:00;1.00;;;0.68;;
49183;SDS011;35021;49.214;12.270;2023-03-11T14:45:33;1.02;;;0.57;;
49183;SDS011;35021;49.214;12.270;2023-03-11T14:50:52;1.27;;;0.80;;
49183;SDS011;35021;49.214;12.270;2023-03-11T14:53:24;0.85;;;0.52;;
49183;SDS011;35021;49.214;12.270;2023-03-11T14:56:00;1.27;;;0.60;;
49183;SDS011;35021;49.214;12.270;2023-03-11T14:58:35;1.00;;;0.60;;
49183;SDS011;35021;49.214;12.270;2023-03-11T15:03:49;1.75;;;1.13;;
49183;SDS011;35021;49.214;12.270;2023-03-11T15:06:22;0.70;;;0.63;;
49183;SDS011;35021;49.214;12.270;2023-03-11T15:09:05;0.50;;;0.50;;
49183;SDS011;35021;49.214;12.270;2023-03-11T15:11:53;0.75;;;0.55;;
49183;SDS011;35021;49.214;12.270;2023-03-11T15:16:55;0.60;;;0.55;;
49183;SDS011;35021;49.214;12.270;2023-03-11T15:20:00;1.40;;;0.80;;
49183;SDS011;35021;49.214;12.270;2023-03-11T15:22:34;0.90;;;0.65;;
49183;SDS011;35021;49.214;12.270;2023-03-11T15:25:14;1.30;;;0.70;;
49183;SDS011;35021;49.214;12.270;2023-03-11T15:27:42;0.93;;;0.50;;
49183;SDS011;35021;49.214;12.270;2023-03-11T15:32:44;1.05;;;0.65;;
49183;SDS011;35021;49.214;12.270;2023-03-11T15:35:17;1.70;;;0.70;;
49183;SDS011;35021;49.214;12.270;2023-03-11T15:37:45;0.93;;;0.60;;
49183;SDS011;35021;49.214;12.270;2023-03-11T15:40:18;1.85;;;0.77;;
49183;SDS011;35021;49.214;12.270;2023-03-11T15:45:40;0.80;;;0.55;;
49183;SDS011;35021;49.214;12.270;2023-03-11T15:48:11;1.05;;;0.65;;
49183;SDS011;35021;49.214;12.270;2023-03-11T15:50:45;0.85;;;0.50;;
49183;SDS011;35021;49.214;12.270;2023-03-11T15:53:19;1.30;;;0.70;;
49183;SDS011;35021;49.214;12.270;2023-03-11T15:55:47;1.15;;;0.60;;
49183;SDS011;35021;49.214;12.270;2023-03-11T15:58:15;2.60;;;0.70;;
49183;SDS011;35021;49.214;12.270;2023-03-11T16:00:45;1.50;;;0.70;;
49183;SDS011;35021;49.214;12.270;2023-03-11T16:03:14;1.63;;;0.65;;
49183;SDS011;35021;49.214;12.270;2023-03-11T16:05:41;1.73;;;1.00;;
49183;SDS011;35021;49.214;12.270;2023-03-11T16:08:08;0.60;;;0.50;;
49183;SDS011;35021;49.214;12.270;2023-03-11T16:10:35;0.68;;;0.50;;
49183;SDS011;35021;49.214;12.270;2023-03-11T16:13:02;1.00;;;0.77;;
49183;SDS011;35021;49.214;12.270;2023-03-11T16:15:31;1.40;;;0.70;;
49183;SDS011;35021;49.214;12.270;2023-03-11T16:18:02;1.35;;;0.60;;
49183;SDS011;35021;49.214;12.270;2023-03-11T16:20:32;1.15;;;0.70;;
49183;SDS011;35021;49.214;12.270;2023-03-11T16:23:19;2.08;;;0.77;;
49183;SDS011;35021;49.214;12.270;2023-03-11T16:25:49;1.08;;;0.68;;
49183;SDS011;35021;49.214;12.270;2023-03-11T16:28:18;1.63;;;0.90;;
49183;SDS011;35021;49.214;12.270;2023-03-11T16:30:45;1.95;;;1.00;;
49183;SDS011;35021;49.214;12.270;2023-03-11T16:33:15;0.70;;;0.60;;
49183;SDS011;35021;49.214;12.270;2023-03-11T16:35:42;1.15;;;0.70;;
49183;SDS011;35021;49.214;12.270;2023-03-11T16:38:09;1.10;;;0.70;;
49183;SDS011;35021;49.214;12.270;2023-03-11T16:40:36;1.52;;;0.88;;
49183;SDS011;35021;49.214;12.270;2023-03-11T16:43:04;1.05;;;0.65;;
49183;SDS011;35021;49.214;12.270;2023-03-11T16:45:35;2.25;;;1.30;;
49183;SDS011;35021;49.214;12.270;2023-03-11T16:48:02;1.38;;;0.82;;
49183;SDS011;35021;49.214;12.270;2023-03-11T16:50:31;0.70;;;0.57;;